createdAt,value
2018-08-10T00:00:47.938Z,92.10
2018-08-10T00:04:12.673Z,92.10
2018-08-10T00:07:37.539Z,92.40
2018-08-10T00:11:02.322Z,93.70
2018-08-10T00:14:27.024Z,94.60
2018-08-10T00:17:51.685Z,95.00
2018-08-10T00:21:16.406Z,94.80
2018-08-10T00:24:41.105Z,95.00
2018-08-10T00:28:06.239Z,94.70
2018-08-10T00:31:30.928Z,95.40
2018-08-10T00:34:55.651Z,94.90
2018-08-10T00:38:20.408Z,94.90
2018-08-10T00:41:45.760Z,94.90
2018-08-10T00:45:11.651Z,94.50
2018-08-10T00:48:36.291Z,94.50
2018-08-10T00:52:00.955Z,93.80
2018-08-10T00:55:25.591Z,93.10
2018-08-10T00:58:50.218Z,92.70
2018-08-10T01:02:14.875Z,92.60
2018-08-10T01:05:39.540Z,92.50
2018-08-10T01:09:07.417Z,91.80
2018-08-10T01:12:32.089Z,92.10
2018-08-10T01:15:56.729Z,91.40
2018-08-10T01:19:21.428Z,91.20
2018-08-10T01:22:51.479Z,91.10
2018-08-10T01:26:16.146Z,90.60
2018-08-10T01:29:40.754Z,90.70
2018-08-10T01:33:06.099Z,90.70
2018-08-10T01:36:30.742Z,91.20
2018-08-10T01:39:55.358Z,92.10
2018-08-10T01:43:20.051Z,92.10
2018-08-10T01:46:44.704Z,91.30
2018-08-10T01:50:10.956Z,90.80
2018-08-10T01:53:35.565Z,89.90
2018-08-10T01:57:00.235Z,88.90
2018-08-10T02:00:24.938Z,88.60
2018-08-10T02:03:49.559Z,89.90
2018-08-10T02:07:14.216Z,91.00
2018-08-10T02:10:38.857Z,90.80
2018-08-10T02:14:03.507Z,90.60
2018-08-10T02:17:28.121Z,91.80
2018-08-10T02:20:52.745Z,91.50
2018-08-10T02:24:17.394Z,92.30
2018-08-10T02:27:43.085Z,93.10
2018-08-10T02:31:08.028Z,93.90
2018-08-10T02:34:32.678Z,94.40
2018-08-10T02:37:57.395Z,94.40
2018-08-10T02:41:22.060Z,95.00
2018-08-10T02:44:46.659Z,93.70
2018-08-10T02:48:11.399Z,95.10
2018-08-10T02:51:36.056Z,95.30
2018-08-10T02:55:00.733Z,95.40
2018-08-10T02:58:25.355Z,94.60
2018-08-10T03:01:50.015Z,94.60
2018-08-10T03:05:14.717Z,94.70
2018-08-10T03:08:39.341Z,91.00
2018-08-10T03:12:04.060Z,91.40
2018-08-10T03:15:28.791Z,90.80
2018-08-10T03:18:53.463Z,91.10
2018-08-10T03:22:18.183Z,91.70
2018-08-10T03:25:42.755Z,89.40
2018-08-10T03:29:07.427Z,87.10
2018-08-10T03:32:32.210Z,85.70
2018-08-10T03:35:56.846Z,84.70
2018-08-10T03:39:21.496Z,85.60
2018-08-10T03:42:46.187Z,87.30
2018-08-10T03:46:10.856Z,88.70
2018-08-10T03:49:35.534Z,86.20
2018-08-10T03:53:00.171Z,86.80
2018-08-10T03:56:25.018Z,87.90
2018-08-10T03:59:49.646Z,90.00
2018-08-10T04:03:14.294Z,88.00
2018-08-10T04:06:38.936Z,85.60
2018-08-10T04:10:03.865Z,84.40
2018-08-10T04:13:28.481Z,84.20
2018-08-10T04:16:53.106Z,83.00
2018-08-10T04:20:17.854Z,82.50
2018-08-10T04:23:42.491Z,81.50
2018-08-10T04:27:07.194Z,81.00
2018-08-10T04:30:31.863Z,82.30
2018-08-10T04:33:56.515Z,83.30
2018-08-10T04:37:21.193Z,86.20
2018-08-10T04:40:45.873Z,88.10
2018-08-10T04:44:10.557Z,90.40
2018-08-10T04:47:35.216Z,90.70
2018-08-10T04:50:59.877Z,90.90
2018-08-10T04:54:24.531Z,90.90
2018-08-10T04:59:13.565Z,90.50
2018-08-10T05:02:38.279Z,91.10
2018-08-10T05:06:02.944Z,91.70
2018-08-10T05:09:27.584Z,92.20
2018-08-10T05:12:52.241Z,92.50
2018-08-10T05:16:16.979Z,92.70
2018-08-10T05:19:41.627Z,92.60
2018-08-10T05:23:06.353Z,92.30
2018-08-10T05:26:30.985Z,92.00
2018-08-10T05:29:55.649Z,91.90
2018-08-10T05:33:20.317Z,91.50
2018-08-10T05:36:45.191Z,91.80
2018-08-10T05:40:10.866Z,91.50
2018-08-10T05:43:35.603Z,90.90
2018-08-10T05:47:00.337Z,88.30
2018-08-10T05:50:24.860Z,88.60
2018-08-10T05:53:49.502Z,89.70
2018-08-10T05:57:14.321Z,89.80
2018-08-10T06:00:39.016Z,87.70
2018-08-10T06:04:03.686Z,86.40
2018-08-10T06:07:28.270Z,87.00
2018-08-10T06:10:53.025Z,86.30
2018-08-10T06:14:17.688Z,87.50
2018-08-10T06:17:42.328Z,87.90
2018-08-10T06:21:07.006Z,90.00
2018-08-10T06:24:31.629Z,91.10
2018-08-10T06:27:56.433Z,91.10
2018-08-10T06:31:20.934Z,91.30
2018-08-10T06:34:45.584Z,91.50
2018-08-10T06:38:10.246Z,91.30
2018-08-10T06:41:34.846Z,90.80
2018-08-10T06:44:59.603Z,89.60
2018-08-10T06:48:24.225Z,89.90
2018-08-10T06:51:48.937Z,90.40
2018-08-10T06:55:13.737Z,90.70
2018-08-10T06:58:38.465Z,91.00
2018-08-10T07:02:03.149Z,91.60
2018-08-10T07:05:27.834Z,91.50
2018-08-10T07:08:52.492Z,91.00
2018-08-10T07:12:17.143Z,90.00
2018-08-10T07:15:41.943Z,90.60
2018-08-10T07:19:06.611Z,90.90
2018-08-10T07:22:31.278Z,91.20
2018-08-10T07:25:55.969Z,91.30
2018-08-10T07:29:20.668Z,91.40
2018-08-10T07:32:45.378Z,91.40
2018-08-10T07:36:10.113Z,88.60
2018-08-10T07:39:34.735Z,89.30
2018-08-10T07:42:59.500Z,88.80
2018-08-10T07:46:24.237Z,87.70
2018-08-10T07:49:48.841Z,87.60
2018-08-10T07:53:13.568Z,86.50
2018-08-10T07:56:38.247Z,87.30
2018-08-10T08:00:02.985Z,88.20
2018-08-10T08:03:27.632Z,89.40
2018-08-10T08:06:52.312Z,88.90
2018-08-10T08:10:16.997Z,87.60
2018-08-10T08:13:41.657Z,87.80
2018-08-10T08:17:06.395Z,88.40
2018-08-10T08:20:31.161Z,88.00
2018-08-10T08:23:55.796Z,87.50
2018-08-10T08:27:20.654Z,87.80
2018-08-10T08:30:45.326Z,87.80
2018-08-10T08:34:10.172Z,87.60
2018-08-10T08:37:34.870Z,86.90
2018-08-10T08:40:59.639Z,85.20
2018-08-10T08:45:42.549Z,82.50
2018-08-10T08:49:07.218Z,81.50
2018-08-10T08:52:31.995Z,81.50
2018-08-10T08:55:59.380Z,81.40
2018-08-10T08:59:24.084Z,79.90
2018-08-10T09:02:48.736Z,79.30
2018-08-10T09:06:13.445Z,78.20
2018-08-10T09:09:40.796Z,78.10
2018-08-10T09:13:05.466Z,76.40
2018-08-10T09:16:30.145Z,76.70
2018-08-10T09:19:54.818Z,77.60
2018-08-10T09:23:19.555Z,75.50
2018-08-10T09:26:44.137Z,76.90
2018-08-10T09:30:11.271Z,76.10
2018-08-10T09:33:35.906Z,74.40
2018-08-10T09:37:00.936Z,72.20
2018-08-10T09:40:25.615Z,72.50
2018-08-10T09:43:50.297Z,73.10
2018-08-10T09:47:14.964Z,73.60
2018-08-10T09:50:39.608Z,72.30
2018-08-10T09:54:04.525Z,70.60
2018-08-10T09:57:29.170Z,72.10
2018-08-10T10:00:59.846Z,74.40
2018-08-10T10:04:24.514Z,74.40
2018-08-10T10:07:49.200Z,73.10
2018-08-10T10:11:13.794Z,73.00
2018-08-10T10:14:38.514Z,72.50
2018-08-10T10:18:03.209Z,73.10
2018-08-10T10:21:27.854Z,71.60
2018-08-10T10:24:52.555Z,70.60
2018-08-10T10:28:17.262Z,70.40
2018-08-10T10:31:42.106Z,69.60
2018-08-10T10:35:07.089Z,69.70
2018-08-10T10:38:31.743Z,72.10
2018-08-10T10:41:56.354Z,72.00
2018-08-10T10:45:20.997Z,70.40
2018-08-10T10:48:46.184Z,70.20
2018-08-10T10:52:10.864Z,68.90
2018-08-10T10:55:35.644Z,68.40
2018-08-10T10:59:00.397Z,68.30
2018-08-10T11:02:25.393Z,68.20
2018-08-10T11:05:52.188Z,68.20
2018-08-10T11:09:18.435Z,65.00
2018-08-10T11:12:43.643Z,66.70
2018-08-10T11:16:09.213Z,65.90
2018-08-10T11:19:34.386Z,65.70
2018-08-10T11:22:59.529Z,65.70
2018-08-10T11:26:24.523Z,65.30
2018-08-10T11:29:51.025Z,65.20
2018-08-10T11:33:17.006Z,64.70
2018-08-10T11:36:42.103Z,65.10
2018-08-10T11:40:13.739Z,64.90
2018-08-10T11:43:38.784Z,64.90
2018-08-10T11:47:04.112Z,64.90
2018-08-10T11:50:29.082Z,65.20
2018-08-10T11:53:54.355Z,64.10
2018-08-10T11:57:20.514Z,63.40
2018-08-10T12:00:45.795Z,62.70
2018-08-10T12:04:13.179Z,62.70
2018-08-10T12:07:38.310Z,63.40
2018-08-10T12:11:03.337Z,63.00
2018-08-10T12:14:28.443Z,62.60
2018-08-10T12:17:56.672Z,62.10
2018-08-10T12:21:21.671Z,61.10
2018-08-10T12:24:46.468Z,60.20
2018-08-10T12:28:11.121Z,61.60
2018-08-10T12:31:35.733Z,62.50
2018-08-10T12:35:00.425Z,62.20
2018-08-10T12:38:25.168Z,61.40
2018-08-10T12:41:49.824Z,62.40
2018-08-10T12:45:14.442Z,61.10
2018-08-10T12:48:39.097Z,62.60
2018-08-10T12:52:03.893Z,62.90
2018-08-10T12:55:29.515Z,62.50
2018-08-10T12:58:54.230Z,62.00
2018-08-10T13:02:18.957Z,61.80
2018-08-10T13:05:43.633Z,60.20
2018-08-10T13:09:12.164Z,59.80
2018-08-10T13:12:36.894Z,59.40
2018-08-10T13:16:01.614Z,60.40
2018-08-10T13:19:26.281Z,61.20
2018-08-10T13:22:51.019Z,59.70
2018-08-10T13:26:15.628Z,60.80
2018-08-10T13:29:40.271Z,59.30
2018-08-10T13:33:05.572Z,58.90
2018-08-10T13:36:30.253Z,59.90
2018-08-10T13:39:54.939Z,60.10
2018-08-10T13:43:19.701Z,60.10
2018-08-10T13:46:45.321Z,60.80
2018-08-10T13:50:13.097Z,61.10
2018-08-10T13:53:37.856Z,60.40
2018-08-10T13:57:02.785Z,60.70
2018-08-10T14:00:27.562Z,59.60
2018-08-10T14:03:53.539Z,59.60
2018-08-10T14:07:18.288Z,58.90
2018-08-10T14:10:43.210Z,59.10
2018-08-10T14:14:08.801Z,59.40
2018-08-10T14:17:33.508Z,59.50
2018-08-10T14:20:58.296Z,59.70
2018-08-10T14:24:23.126Z,59.50
2018-08-10T14:27:47.910Z,59.90
2018-08-10T14:31:12.632Z,59.60
2018-08-10T14:34:37.370Z,59.10
2018-08-10T14:38:02.173Z,59.30
2018-08-10T14:41:26.942Z,59.60
2018-08-10T14:44:51.651Z,60.80
2018-08-10T14:48:16.331Z,58.40
2018-08-10T14:51:41.126Z,59.90
2018-08-10T14:55:07.370Z,58.50
2018-08-10T14:59:01.727Z,58.50
2018-08-10T15:02:26.466Z,59.30
2018-08-10T15:05:52.378Z,59.60
2018-08-10T15:09:17.050Z,59.30
2018-08-10T15:12:42.135Z,59.30
2018-08-10T15:16:06.682Z,59.20
2018-08-10T15:19:32.666Z,58.10
2018-08-10T15:22:58.808Z,57.20
2018-08-10T15:26:25.225Z,57.00
2018-08-10T15:29:50.060Z,57.60
2018-08-10T15:33:14.857Z,58.00
2018-08-10T15:36:39.610Z,56.70
2018-08-10T15:40:05.034Z,57.40
2018-08-10T15:43:29.882Z,56.60
2018-08-10T15:46:54.580Z,57.50
2018-08-10T15:50:19.412Z,57.00
2018-08-10T15:53:44.154Z,57.80
2018-08-10T15:57:08.922Z,58.50
2018-08-10T16:00:33.700Z,57.60
2018-08-10T16:03:58.422Z,57.30
2018-08-10T16:07:23.186Z,57.80
2018-08-10T16:10:47.885Z,57.80
2018-08-10T16:14:12.736Z,57.80
2018-08-10T16:17:38.008Z,57.50
2018-08-10T16:21:02.770Z,56.70
2018-08-10T16:24:27.459Z,56.30
2018-08-10T16:27:52.273Z,55.10
2018-08-10T16:31:16.974Z,54.70
2018-08-10T16:34:41.759Z,53.80
2018-08-10T16:38:07.093Z,54.70
2018-08-10T16:41:39.228Z,54.40
2018-08-10T16:45:04.655Z,55.30
2018-08-10T16:48:32.020Z,54.00
2018-08-10T16:51:57.234Z,54.50
2018-08-10T16:55:22.686Z,55.00
2018-08-10T16:58:48.464Z,55.30
2018-08-10T17:02:13.711Z,56.00
2018-08-10T17:05:41.723Z,56.40
2018-08-10T17:09:10.269Z,54.50
2018-08-10T17:12:36.551Z,54.50
2018-08-10T17:16:03.649Z,54.50
2018-08-10T17:19:28.951Z,54.70
2018-08-10T17:22:57.111Z,55.90
2018-08-10T17:26:22.557Z,55.20
2018-08-10T17:29:47.647Z,55.50
2018-08-10T17:33:12.393Z,53.60
2018-08-10T17:36:37.046Z,54.90
2018-08-10T17:40:01.766Z,55.60
2018-08-10T17:43:26.479Z,56.30
2018-08-10T17:46:51.248Z,55.00
2018-08-10T17:50:18.684Z,54.90
2018-08-10T17:53:43.369Z,54.80
2018-08-10T17:57:08.128Z,56.60
2018-08-10T18:00:32.930Z,55.60
2018-08-10T18:03:57.756Z,55.80
2018-08-10T18:07:22.501Z,56.80
2018-08-10T18:10:47.392Z,56.80
2018-08-10T18:14:12.146Z,58.10
2018-08-10T18:17:37.727Z,58.00
2018-08-10T18:21:02.461Z,57.90
2018-08-10T18:24:27.154Z,59.60
2018-08-10T18:27:51.936Z,58.80
2018-08-10T18:31:16.643Z,60.50
2018-08-10T18:34:41.475Z,62.30
2018-08-10T18:38:06.500Z,60.00
2018-08-10T18:41:31.237Z,63.40
2018-08-10T18:44:56.044Z,63.60
2018-08-10T18:48:20.804Z,63.90
2018-08-10T18:51:45.650Z,62.30
2018-08-10T18:55:12.939Z,65.10
2018-08-10T18:58:37.624Z,64.60
2018-08-10T19:02:02.300Z,63.50
2018-08-10T19:05:27.036Z,63.20
2018-08-10T19:08:51.740Z,65.80
2018-08-10T19:12:16.543Z,65.40
2018-08-10T19:15:41.089Z,66.10
2018-08-10T19:19:05.866Z,65.50
2018-08-10T19:22:30.628Z,65.00
2018-08-10T19:25:55.330Z,66.00
2018-08-10T19:29:19.949Z,65.80
2018-08-10T19:32:45.637Z,66.90
2018-08-10T19:36:10.278Z,67.30
2018-08-10T19:39:34.996Z,66.40
2018-08-10T19:42:59.841Z,67.80
2018-08-10T19:46:24.587Z,67.20
2018-08-10T19:49:49.251Z,67.40
2018-08-10T19:53:14.018Z,67.80
2018-08-10T19:56:38.757Z,68.20
2018-08-10T20:00:03.492Z,68.70
2018-08-10T20:03:28.155Z,68.40
2018-08-10T20:06:52.874Z,69.30
2018-08-10T20:10:17.770Z,70.00
2018-08-10T20:13:42.473Z,69.20
2018-08-10T20:17:07.232Z,70.20
2018-08-10T20:20:31.968Z,70.00
2018-08-10T20:23:56.601Z,70.10
2018-08-10T20:27:21.309Z,70.20
2018-08-10T20:30:46.070Z,70.50
2018-08-10T20:34:10.752Z,70.10
2018-08-10T20:37:35.392Z,71.10
2018-08-10T20:41:00.093Z,70.60
2018-08-10T20:44:25.122Z,71.20
2018-08-10T20:47:49.970Z,71.50
2018-08-10T20:51:14.770Z,71.60
2018-08-10T20:54:39.571Z,71.60
2018-08-10T20:58:04.299Z,71.80
2018-08-10T21:01:29.079Z,72.40
2018-08-10T21:04:53.764Z,72.20
2018-08-10T21:08:18.459Z,72.90
2018-08-10T21:11:43.973Z,73.10
2018-08-10T21:15:10.101Z,72.90
2018-08-10T21:18:34.785Z,72.90
2018-08-10T21:21:59.525Z,72.60
2018-08-10T21:25:24.284Z,73.00
2018-08-10T21:28:48.913Z,73.60
2018-08-10T21:32:13.611Z,74.90
2018-08-10T21:35:38.634Z,74.40
2018-08-10T21:39:03.436Z,75.00
2018-08-10T21:42:28.164Z,73.70
2018-08-10T21:45:52.973Z,75.80
2018-08-10T21:49:17.669Z,74.50
2018-08-10T21:52:43.265Z,76.30
2018-08-10T21:56:08.006Z,75.90
2018-08-10T21:59:32.668Z,75.90
2018-08-10T22:02:57.317Z,77.40
2018-08-10T22:06:22.028Z,78.20
2018-08-10T22:09:46.745Z,77.50
2018-08-10T22:13:16.798Z,78.10
2018-08-10T22:16:46.809Z,79.70
2018-08-10T22:20:11.470Z,80.40
2018-08-10T22:23:36.132Z,79.70
2018-08-10T22:27:00.765Z,77.20
2018-08-10T22:30:25.490Z,77.50
2018-08-10T22:33:50.165Z,77.90
2018-08-10T22:37:14.862Z,77.90
2018-08-10T22:40:39.538Z,79.70
2018-08-10T22:44:04.388Z,81.50
2018-08-10T22:47:29.077Z,82.50
2018-08-10T22:50:53.730Z,82.30
2018-08-10T22:54:18.455Z,80.10
2018-08-10T22:57:43.183Z,77.30
2018-08-10T23:01:07.946Z,77.10
2018-08-10T23:04:32.579Z,79.80
2018-08-10T23:07:57.385Z,81.00
2018-08-10T23:11:22.045Z,82.30
2018-08-10T23:14:46.722Z,81.90
2018-08-10T23:18:11.384Z,79.90
2018-08-10T23:21:36.086Z,80.10
2018-08-10T23:25:00.809Z,81.30
2018-08-10T23:28:25.485Z,82.80
2018-08-10T23:31:50.081Z,80.20
2018-08-10T23:35:14.798Z,81.50
2018-08-10T23:38:39.522Z,80.90
2018-08-10T23:42:04.250Z,81.40
2018-08-10T23:45:28.868Z,83.00
2018-08-10T23:48:53.559Z,84.40
2018-08-10T23:52:18.224Z,85.00
2018-08-10T23:55:42.996Z,83.40
2018-08-10T23:59:07.695Z,82.30
